createdAt,value
2023-04-15T00:01:40.566Z,9.95
2023-04-15T00:04:07.695Z,9.93
2023-04-15T00:06:34.575Z,9.96
2023-04-15T00:09:01.782Z,9.98
2023-04-15T00:11:29.221Z,9.98
2023-04-15T00:13:56.057Z,9.98
2023-04-15T00:16:23.269Z,9.95
2023-04-15T00:18:50.196Z,9.92
2023-04-15T00:21:17.001Z,9.86
2023-04-15T00:23:44.423Z,9.85
2023-04-15T00:26:11.320Z,9.84
2023-04-15T00:28:38.955Z,9.84
2023-04-15T00:31:06.069Z,9.83
2023-04-15T00:33:33.136Z,9.82
2023-04-15T00:36:00.114Z,9.80
2023-04-15T00:38:27.172Z,9.79
2023-04-15T00:40:54.219Z,9.80
2023-04-15T00:43:22.499Z,9.81
2023-04-15T00:45:50.312Z,9.82
2023-04-15T00:48:17.812Z,9.83
2023-04-15T00:50:44.800Z,9.83
2023-04-15T00:53:11.705Z,9.81
2023-04-15T00:55:38.807Z,9.82
2023-04-15T00:58:05.679Z,9.78
2023-04-15T01:00:32.675Z,9.80
2023-04-15T01:02:59.687Z,9.80
2023-04-15T01:05:27.369Z,9.78
2023-04-15T01:07:55.433Z,9.76
2023-04-15T01:10:22.481Z,9.77
2023-04-15T01:12:49.387Z,9.76
2023-04-15T01:15:16.604Z,9.75
2023-04-15T01:17:43.970Z,9.73
2023-04-15T01:20:12.553Z,9.75
2023-04-15T01:22:39.892Z,9.73
2023-04-15T01:25:10.199Z,9.71
2023-04-15T01:27:39.366Z,9.70
2023-04-15T01:30:07.494Z,9.67
2023-04-15T01:32:34.552Z,9.67
2023-04-15T01:35:01.767Z,9.63
2023-04-15T01:37:29.420Z,9.61
2023-04-15T01:39:57.673Z,9.61
2023-04-15T01:42:24.677Z,9.63
2023-04-15T01:44:51.478Z,9.66
2023-04-15T01:47:18.277Z,9.65
2023-04-15T01:49:45.075Z,9.62
2023-04-15T01:52:12.030Z,9.62
2023-04-15T01:54:38.871Z,9.63
2023-04-15T01:57:06.030Z,9.61
2023-04-15T01:59:32.855Z,9.60
2023-04-15T02:02:00.181Z,9.59
2023-04-15T02:04:27.078Z,9.59
2023-04-15T02:06:53.991Z,9.60
2023-04-15T02:09:20.867Z,9.54
2023-04-15T02:11:47.812Z,9.50
2023-04-15T02:14:14.817Z,9.49
2023-04-15T02:16:41.568Z,9.47
2023-04-15T02:19:09.635Z,9.47
2023-04-15T02:21:36.435Z,9.39
2023-04-15T02:24:03.303Z,9.35
2023-04-15T02:26:32.926Z,9.35
2023-04-15T02:29:00.155Z,9.35
2023-04-15T02:31:27.253Z,9.35
2023-04-15T02:33:54.093Z,9.35
2023-04-15T02:36:21.878Z,9.36
2023-04-15T02:38:48.782Z,9.36
2023-04-15T02:41:15.967Z,9.35
2023-04-15T02:43:42.793Z,9.37
2023-04-15T02:46:13.124Z,9.37
2023-04-15T02:48:39.970Z,9.38
2023-04-15T02:51:17.038Z,9.37
2023-04-15T02:53:43.873Z,9.38
2023-04-15T02:56:11.620Z,9.38
2023-04-15T02:58:38.487Z,9.39
2023-04-15T03:01:05.449Z,9.38
2023-04-15T03:03:32.416Z,9.39
2023-04-15T03:05:59.444Z,9.40
2023-04-15T03:08:26.560Z,9.39
2023-04-15T03:10:54.102Z,9.40
2023-04-15T03:13:21.615Z,9.37
2023-04-15T03:15:48.846Z,9.35
2023-04-15T03:18:15.876Z,9.36
2023-04-15T03:20:42.870Z,9.37
2023-04-15T03:23:09.693Z,9.38
2023-04-15T03:25:37.752Z,9.39
2023-04-15T03:28:04.620Z,9.39
2023-04-15T03:30:31.869Z,9.38
2023-04-15T03:32:58.953Z,9.40
2023-04-15T03:35:25.868Z,9.40
2023-04-15T03:37:52.807Z,9.41
2023-04-15T03:40:21.973Z,9.41
2023-04-15T03:42:48.773Z,9.41
2023-04-15T03:45:15.891Z,9.44
2023-04-15T03:47:42.872Z,9.43
2023-04-15T03:50:09.939Z,9.39
2023-04-15T03:52:36.688Z,9.40
2023-04-15T03:55:03.454Z,9.43
2023-04-15T03:57:30.316Z,9.43
2023-04-15T03:59:57.067Z,9.42
2023-04-15T04:02:24.025Z,9.40
2023-04-15T04:04:51.189Z,9.40
2023-04-15T04:07:18.245Z,9.38
2023-04-15T04:09:47.026Z,9.41
2023-04-15T04:12:14.288Z,9.39
2023-04-15T04:14:41.087Z,9.38
2023-04-15T04:17:08.182Z,9.41
2023-04-15T04:19:37.678Z,9.38
2023-04-15T04:22:04.442Z,9.38
2023-04-15T04:24:31.893Z,9.38
2023-04-15T04:26:58.651Z,9.41
2023-04-15T04:29:25.371Z,9.40
2023-04-15T04:31:52.204Z,9.36
2023-04-15T04:34:18.988Z,9.37
2023-04-15T04:36:45.896Z,9.33
2023-04-15T04:39:12.736Z,9.33
2023-04-15T04:41:39.528Z,9.32
2023-04-15T04:44:06.387Z,9.33
2023-04-15T04:46:33.185Z,9.27
2023-04-15T04:49:00.075Z,9.28
2023-04-15T04:51:26.936Z,9.26
2023-04-15T04:53:54.201Z,9.27
2023-04-15T04:56:20.992Z,9.30
2023-04-15T04:58:47.861Z,9.32
2023-04-15T05:01:14.995Z,9.33
2023-04-15T05:03:42.196Z,9.34
2023-04-15T05:06:09.143Z,9.36
2023-04-15T05:08:37.289Z,9.36
2023-04-15T05:11:04.869Z,9.35
2023-04-15T05:13:31.928Z,9.37
2023-04-15T05:15:58.746Z,9.38
2023-04-15T05:18:29.437Z,9.36
2023-04-15T05:20:56.382Z,9.36
2023-04-15T05:23:23.368Z,9.39
2023-04-15T05:25:50.216Z,9.40
2023-04-15T05:28:17.347Z,9.40
2023-04-15T05:30:44.356Z,9.42
2023-04-15T05:33:11.269Z,9.45
2023-04-15T05:35:38.182Z,9.46
2023-04-15T05:38:05.099Z,9.48
2023-04-15T05:40:35.212Z,9.47
2023-04-15T05:43:02.195Z,9.49
2023-04-15T05:45:29.082Z,9.55
2023-04-15T05:47:56.055Z,9.56
2023-04-15T05:50:25.249Z,9.59
2023-04-15T05:52:52.062Z,9.57
2023-04-15T05:55:18.904Z,9.56
2023-04-15T05:57:46.079Z,9.58
2023-04-15T06:00:13.463Z,9.59
2023-04-15T06:02:40.443Z,9.61
2023-04-15T06:05:10.209Z,9.62
2023-04-15T06:07:37.483Z,9.61
2023-04-15T06:10:04.789Z,9.60
2023-04-15T06:12:31.589Z,9.61
2023-04-15T06:14:59.997Z,9.60
2023-04-15T06:17:27.144Z,9.61
2023-04-15T06:19:56.971Z,9.61
2023-04-15T06:22:24.459Z,9.61
2023-04-15T06:24:51.884Z,9.62
2023-04-15T06:27:19.449Z,9.64
2023-04-15T06:29:46.599Z,9.64
2023-04-15T06:32:13.430Z,9.66
2023-04-15T06:34:40.247Z,9.71
2023-04-15T06:37:07.143Z,9.76
2023-04-15T06:39:34.077Z,9.76
2023-04-15T06:42:01.920Z,9.79
2023-04-15T06:44:30.088Z,9.81
2023-04-15T06:46:57.987Z,9.86
2023-04-15T06:49:24.768Z,9.90
2023-04-15T06:51:51.971Z,9.96
2023-04-15T06:54:18.926Z,9.99
2023-04-15T06:56:46.004Z,10.03
2023-04-15T06:59:13.152Z,10.05
2023-04-15T07:01:41.155Z,10.05
2023-04-15T07:04:08.076Z,10.10
2023-04-15T07:06:35.909Z,10.16
2023-04-15T07:09:04.010Z,10.20
2023-04-15T07:11:31.219Z,10.22
2023-04-15T07:13:58.304Z,10.25
2023-04-15T07:16:27.158Z,10.24
2023-04-15T07:18:56.222Z,10.20
2023-04-15T07:21:23.128Z,10.18
2023-04-15T07:23:49.936Z,10.15
2023-04-15T07:26:16.750Z,10.18
2023-04-15T07:28:43.841Z,10.17
2023-04-15T07:31:10.879Z,10.17
2023-04-15T07:33:37.914Z,10.18
2023-04-15T07:36:04.759Z,10.19
2023-04-15T07:38:31.640Z,10.22
2023-04-15T07:40:58.709Z,10.24
2023-04-15T07:43:25.588Z,10.21
2023-04-15T07:45:52.430Z,10.20
2023-04-15T07:48:19.329Z,10.20
2023-04-15T07:50:46.279Z,10.23
2023-04-15T07:53:13.880Z,10.25
2023-04-15T07:55:40.936Z,10.25
2023-04-15T07:58:07.739Z,10.28
2023-04-15T08:00:34.611Z,10.28
2023-04-15T08:03:02.024Z,10.28
2023-04-15T08:05:29.273Z,10.34
2023-04-15T08:07:56.871Z,10.41
2023-04-15T08:10:23.846Z,10.48
2023-04-15T08:12:51.120Z,10.56
2023-04-15T08:15:18.082Z,10.64
2023-04-15T08:17:45.038Z,10.68
2023-04-15T08:20:12.165Z,10.73
2023-04-15T08:22:39.231Z,10.76
2023-04-15T08:25:06.228Z,10.78
2023-04-15T08:27:33.135Z,10.83
2023-04-15T08:30:02.734Z,10.89
2023-04-15T08:32:30.619Z,10.96
2023-04-15T08:34:57.542Z,10.97
2023-04-15T08:37:24.484Z,10.95
2023-04-15T08:39:51.329Z,10.95
2023-04-15T08:42:20.132Z,10.96
2023-04-15T08:44:48.665Z,11.02
2023-04-15T08:47:18.577Z,11.06
2023-04-15T08:49:45.460Z,11.06
2023-04-15T08:52:12.677Z,11.05
2023-04-15T08:54:39.989Z,11.06
2023-04-15T08:57:07.156Z,11.05
2023-04-15T08:59:34.009Z,11.05
2023-04-15T09:02:01.541Z,11.06
2023-04-15T09:04:28.785Z,11.06
2023-04-15T09:06:55.588Z,11.02
2023-04-15T09:09:23.027Z,11.06
2023-04-15T09:11:51.735Z,11.11
2023-04-15T09:14:18.839Z,11.14
2023-04-15T09:16:55.892Z,11.19
2023-04-15T09:19:23.611Z,11.24
2023-04-15T09:21:51.631Z,11.32
2023-04-15T09:24:18.650Z,11.38
2023-04-15T09:26:45.762Z,11.45
2023-04-15T09:29:14.233Z,11.52
2023-04-15T09:31:42.078Z,11.56
2023-04-15T09:34:09.090Z,11.59
2023-04-15T09:36:52.308Z,11.63
2023-04-15T09:39:19.256Z,11.66
2023-04-15T09:41:46.407Z,11.70
2023-04-15T09:44:23.294Z,11.75
2023-04-15T09:46:50.161Z,11.79
2023-04-15T09:49:18.275Z,11.83
2023-04-15T09:51:57.623Z,11.84
2023-04-15T09:54:35.390Z,11.78
2023-04-15T09:57:06.109Z,11.73
2023-04-15T09:59:33.014Z,11.64
2023-04-15T10:02:00.159Z,11.57
2023-04-15T10:04:28.698Z,11.60
2023-04-15T10:06:56.372Z,11.62
2023-04-15T10:09:23.305Z,11.67
2023-04-15T10:11:50.801Z,11.67
2023-04-15T10:14:19.151Z,11.75
2023-04-15T10:16:49.367Z,11.87
2023-04-15T10:19:19.566Z,11.96
2023-04-15T10:21:46.972Z,12.04
2023-04-15T10:24:17.010Z,12.05
2023-04-15T10:26:44.932Z,12.13
2023-04-15T10:29:12.123Z,12.23
2023-04-15T10:31:39.313Z,12.30
2023-04-15T10:34:06.929Z,12.36
2023-04-15T10:36:33.819Z,12.38
2023-04-15T10:39:00.887Z,12.31
2023-04-15T10:41:31.608Z,12.28
2023-04-15T10:44:02.913Z,12.26
2023-04-15T10:46:31.565Z,12.21
2023-04-15T10:48:58.514Z,12.24
2023-04-15T10:51:32.757Z,12.24
2023-04-15T10:54:00.514Z,12.22
2023-04-15T10:56:29.072Z,12.18
2023-04-15T10:58:55.967Z,12.15
2023-04-15T11:01:23.646Z,12.15
2023-04-15T11:03:52.136Z,12.16
2023-04-15T11:06:19.254Z,12.18
2023-04-15T11:08:54.524Z,12.17
2023-04-15T11:11:21.408Z,12.17
2023-04-15T11:13:49.789Z,12.22
2023-04-15T11:16:16.920Z,12.26
2023-04-15T11:18:53.645Z,12.32
2023-04-15T11:21:24.927Z,12.36
2023-04-15T11:23:52.067Z,12.48
2023-04-15T11:26:19.008Z,12.57
2023-04-15T11:28:46.627Z,12.74
2023-04-15T11:31:14.730Z,12.85
2023-04-15T11:33:51.464Z,12.94
2023-04-15T11:36:18.373Z,13.10
2023-04-15T11:38:47.683Z,13.22
2023-04-15T11:41:14.631Z,13.36
2023-04-15T11:43:43.928Z,13.45
2023-04-15T11:46:11.048Z,13.55
2023-04-15T11:48:42.500Z,13.62
2023-04-15T11:51:09.359Z,13.75
2023-04-15T11:53:43.571Z,13.79
2023-04-15T11:56:11.953Z,13.81
2023-04-15T11:58:39.559Z,13.88
2023-04-15T12:01:07.246Z,13.86
2023-04-15T12:03:44.212Z,13.86
2023-04-15T12:06:16.953Z,13.91
2023-04-15T12:08:53.614Z,13.98
2023-04-15T12:11:21.934Z,14.08
2023-04-15T12:13:49.710Z,14.12
2023-04-15T12:16:18.561Z,14.18
2023-04-15T12:18:47.545Z,14.24
2023-04-15T12:21:14.596Z,14.20
2023-04-15T12:23:50.045Z,14.15
2023-04-15T12:26:17.605Z,14.14
2023-04-15T12:28:44.600Z,14.20
2023-04-15T12:31:12.308Z,14.29
2023-04-15T12:33:40.049Z,14.40
2023-04-15T12:36:07.169Z,14.47
2023-04-15T12:38:34.211Z,14.60
2023-04-15T12:41:01.251Z,14.66
2023-04-15T12:43:28.069Z,14.63
2023-04-15T12:45:55.058Z,14.57
2023-04-15T12:48:22.028Z,14.60
2023-04-15T12:50:48.915Z,14.68
2023-04-15T12:53:15.990Z,14.76
2023-04-15T12:55:42.852Z,14.81
2023-04-15T12:58:09.792Z,14.95
2023-04-15T13:00:37.011Z,15.08
2023-04-15T13:03:06.748Z,15.20
2023-04-15T13:05:34.116Z,15.30
2023-04-15T13:08:01.239Z,15.31
2023-04-15T13:10:28.779Z,15.30
2023-04-15T13:12:57.129Z,15.29
2023-04-15T13:15:24.090Z,15.28
2023-04-15T13:17:53.641Z,15.29
2023-04-15T13:20:20.599Z,15.37
2023-04-15T13:22:47.464Z,15.47
2023-04-15T13:25:14.435Z,15.55
2023-04-15T13:27:41.372Z,15.62
2023-04-15T13:30:11.077Z,15.64
2023-04-15T13:32:38.035Z,15.60
2023-04-15T13:35:05.572Z,15.53
2023-04-15T13:37:32.862Z,15.39
2023-04-15T13:39:59.789Z,15.32
2023-04-15T13:42:27.729Z,15.28
2023-04-15T13:44:55.029Z,15.29
2023-04-15T13:47:22.352Z,15.36
2023-04-15T13:49:49.290Z,15.36
2023-04-15T13:52:16.398Z,15.41
2023-04-15T13:54:43.412Z,15.43
2023-04-15T13:57:10.354Z,15.42
2023-04-15T13:59:37.276Z,15.50
2023-04-15T14:02:04.444Z,15.53
2023-04-15T14:04:32.656Z,15.61
2023-04-15T14:07:00.012Z,15.69
2023-04-15T14:09:28.099Z,15.76
2023-04-15T14:11:55.002Z,15.86
2023-04-15T14:14:21.956Z,15.95
2023-04-15T14:16:49.146Z,16.02
2023-04-15T14:19:16.248Z,16.09
2023-04-15T14:21:43.284Z,16.07
2023-04-15T14:24:10.381Z,15.96
2023-04-15T14:26:40.427Z,15.91
2023-04-15T14:29:07.313Z,15.86
2023-04-15T14:31:34.295Z,15.78
2023-04-15T14:34:01.381Z,15.76
2023-04-15T14:36:28.846Z,15.75
2023-04-15T14:38:59.088Z,15.83
2023-04-15T14:41:26.198Z,15.81
2023-04-15T14:43:53.100Z,15.80
2023-04-15T14:46:20.169Z,15.78
2023-04-15T14:48:47.005Z,15.77
2023-04-15T14:51:13.886Z,15.76
2023-04-15T14:53:40.913Z,15.78
2023-04-15T14:56:11.074Z,15.78
2023-04-15T14:58:38.058Z,15.74
2023-04-15T15:01:05.038Z,15.70
2023-04-15T15:03:32.144Z,15.66
2023-04-15T15:05:59.342Z,15.60
2023-04-15T15:08:26.423Z,15.55
2023-04-15T15:10:53.333Z,15.48
2023-04-15T15:13:20.454Z,15.43
2023-04-15T15:15:49.801Z,15.38
2023-04-15T15:18:19.434Z,15.35
2023-04-15T15:20:46.558Z,15.37
2023-04-15T15:23:13.471Z,15.42
2023-04-15T15:25:40.562Z,15.49
2023-04-15T15:28:07.585Z,15.55
2023-04-15T15:30:34.471Z,15.62
2023-04-15T15:33:01.344Z,15.67
2023-04-15T15:35:28.333Z,15.73
2023-04-15T15:37:55.540Z,15.72
2023-04-15T15:40:22.432Z,15.71
2023-04-15T15:42:51.260Z,15.73
2023-04-15T15:45:18.380Z,15.74
2023-04-15T15:47:45.373Z,15.74
2023-04-15T15:50:13.403Z,15.72
2023-04-15T15:52:40.392Z,15.77
2023-04-15T15:55:07.789Z,15.79
2023-04-15T15:57:34.795Z,15.82
2023-04-15T16:00:11.312Z,15.88
2023-04-15T16:05:09.214Z,16.04
2023-04-15T16:07:36.448Z,16.09
2023-04-15T16:10:03.275Z,16.14
2023-04-15T16:12:30.066Z,16.20
2023-04-15T16:14:57.058Z,16.25
2023-04-15T16:17:24.057Z,16.31
2023-04-15T16:19:58.684Z,16.35
2023-04-15T16:22:28.032Z,16.37
2023-04-15T16:24:54.960Z,16.36
2023-04-15T16:27:21.928Z,16.35
2023-04-15T16:29:48.880Z,16.35
2023-04-15T16:32:17.191Z,16.36
2023-04-15T16:34:44.158Z,16.35
2023-04-15T16:37:11.093Z,16.31
2023-04-15T16:39:38.158Z,16.30
2023-04-15T16:42:05.271Z,16.25
2023-04-15T16:44:32.430Z,16.20
2023-04-15T16:46:59.858Z,16.15
2023-04-15T16:49:29.309Z,16.11
2023-04-15T16:51:56.273Z,16.07
2023-04-15T16:54:23.345Z,16.03
2023-04-15T16:56:50.289Z,15.98
2023-04-15T16:59:17.594Z,15.90
2023-04-15T17:01:44.685Z,15.80
2023-04-15T17:04:11.873Z,15.69
2023-04-15T17:06:42.450Z,15.62
2023-04-15T17:09:09.652Z,15.59
2023-04-15T17:11:38.791Z,15.56
2023-04-15T17:14:06.221Z,15.53
2023-04-15T17:16:33.227Z,15.49
2023-04-15T17:19:00.151Z,15.47
2023-04-15T17:21:27.776Z,15.48
2023-04-15T17:23:55.091Z,15.45
2023-04-15T17:26:22.685Z,15.43
2023-04-15T17:28:49.684Z,15.41
2023-04-15T17:31:16.647Z,15.40
2023-04-15T17:33:56.353Z,15.36
2023-04-15T17:36:31.635Z,15.31
2023-04-15T17:38:58.601Z,15.23
2023-04-15T17:41:25.767Z,15.17
2023-04-15T17:43:52.661Z,15.11
2023-04-15T17:46:19.622Z,15.04
2023-04-15T17:48:46.777Z,14.94
2023-04-15T17:51:13.727Z,14.85
2023-04-15T17:53:40.659Z,14.76
2023-04-15T17:56:07.655Z,14.69
2023-04-15T17:58:34.649Z,14.63
2023-04-15T18:01:01.658Z,14.58
2023-04-15T18:03:28.759Z,14.53
2023-04-15T18:05:56.356Z,14.48
2023-04-15T18:08:23.371Z,14.42
2023-04-15T18:10:50.247Z,14.38
2023-04-15T18:13:17.314Z,14.32
2023-04-15T18:15:45.681Z,14.29
2023-04-15T18:18:14.214Z,14.25
2023-04-15T18:20:41.484Z,14.24
2023-04-15T18:23:08.635Z,14.22
2023-04-15T18:25:35.765Z,14.21
2023-04-15T18:28:05.811Z,14.16
2023-04-15T18:30:32.729Z,14.12
2023-04-15T18:32:59.768Z,14.10
2023-04-15T18:35:26.898Z,14.08
2023-04-15T18:37:53.772Z,14.09
2023-04-15T18:40:20.738Z,14.06
2023-04-15T18:42:47.699Z,14.04
2023-04-15T18:45:14.682Z,13.98
2023-04-15T18:47:42.179Z,13.95
2023-04-15T18:50:09.339Z,13.90
2023-04-15T18:52:36.364Z,13.86
2023-04-15T18:55:03.742Z,13.85
2023-04-15T18:57:34.812Z,13.82
2023-04-15T19:00:04.901Z,13.78
2023-04-15T19:02:31.957Z,13.73
2023-04-15T19:04:58.961Z,13.70
2023-04-15T19:07:25.845Z,13.66
2023-04-15T19:09:53.331Z,13.64
2023-04-15T19:12:20.214Z,13.62
2023-04-15T19:14:47.086Z,13.61
2023-04-15T19:17:16.350Z,13.57
2023-04-15T19:19:43.928Z,13.54
2023-04-15T19:22:10.889Z,13.50
2023-04-15T19:24:37.749Z,13.46
2023-04-15T19:27:04.624Z,13.43
2023-04-15T19:29:31.522Z,13.39
2023-04-15T19:31:58.369Z,13.35
2023-04-15T19:34:25.454Z,13.34
2023-04-15T19:36:52.368Z,13.31
2023-04-15T19:39:20.021Z,13.28
2023-04-15T19:41:47.553Z,13.30
2023-04-15T19:44:14.587Z,13.28
2023-04-15T19:46:42.291Z,13.26
2023-04-15T19:49:09.168Z,13.23
2023-04-15T19:51:36.050Z,13.21
2023-04-15T19:54:03.045Z,13.20
2023-04-15T19:56:31.190Z,13.19
2023-04-15T19:59:00.126Z,13.17
2023-04-15T20:01:28.406Z,13.14
2023-04-15T20:03:55.633Z,13.10
2023-04-15T20:06:22.957Z,13.08
2023-04-15T20:08:50.105Z,13.07
2023-04-15T20:11:17.372Z,13.06
2023-04-15T20:13:44.292Z,13.06
2023-04-15T20:16:12.698Z,13.04
2023-04-15T20:18:39.747Z,13.01
2023-04-15T20:21:06.628Z,13.00
2023-04-15T20:23:35.548Z,13.00
2023-04-15T20:26:02.419Z,13.01
2023-04-15T20:28:29.328Z,12.99
2023-04-15T20:30:56.356Z,12.97
2023-04-15T20:33:23.354Z,12.94
2023-04-15T20:35:50.346Z,12.92
2023-04-15T20:38:17.328Z,12.88
2023-04-15T20:40:44.234Z,12.86
2023-04-15T20:43:11.241Z,12.84
2023-04-15T20:45:39.666Z,12.83
2023-04-15T20:48:06.669Z,12.84
2023-04-15T20:50:33.624Z,12.84
2023-04-15T20:53:00.644Z,12.86
2023-04-15T20:55:29.573Z,12.86
2023-04-15T20:57:58.605Z,12.84
2023-04-15T21:00:25.582Z,12.81
2023-04-15T21:02:52.684Z,12.82
2023-04-15T21:05:19.764Z,12.81
2023-04-15T21:07:46.773Z,12.78
2023-04-15T21:10:13.570Z,12.75
2023-04-15T21:12:41.470Z,12.75
2023-04-15T21:15:08.836Z,12.74
2023-04-15T21:17:35.920Z,12.73
2023-04-15T21:20:02.949Z,12.72
2023-04-15T21:22:29.892Z,12.74
2023-04-15T21:24:56.735Z,12.70
2023-04-15T21:27:23.578Z,12.70
2023-04-15T21:29:50.476Z,12.68
2023-04-15T21:32:17.369Z,12.67
2023-04-15T21:34:44.350Z,12.64
2023-04-15T21:37:11.201Z,12.63
2023-04-15T21:39:38.058Z,12.62
2023-04-15T21:42:05.011Z,12.63
2023-04-15T21:44:31.938Z,12.61
2023-04-15T21:46:59.258Z,12.59
2023-04-15T21:49:26.076Z,12.56
2023-04-15T21:51:52.882Z,12.54
2023-04-15T21:54:19.916Z,12.54
2023-04-15T21:56:48.021Z,12.52
2023-04-15T21:59:14.839Z,12.50
2023-04-15T22:01:41.656Z,12.49
2023-04-15T22:04:10.015Z,12.50
2023-04-15T22:06:36.933Z,12.50
2023-04-15T22:09:03.850Z,12.49
2023-04-15T22:11:31.224Z,12.51
2023-04-15T22:13:58.845Z,12.51
2023-04-15T22:16:26.863Z,12.49
2023-04-15T22:18:54.700Z,12.48
2023-04-15T22:21:21.575Z,12.49
2023-04-15T22:23:49.010Z,12.48
2023-04-15T22:26:15.961Z,12.47
2023-04-15T22:28:42.890Z,12.45
2023-04-15T22:31:10.225Z,12.42
2023-04-15T22:33:37.110Z,12.43
2023-04-15T22:36:04.003Z,12.42
2023-04-15T22:38:31.191Z,12.43
2023-04-15T22:40:58.630Z,12.43
2023-04-15T22:43:26.307Z,12.42
2023-04-15T22:45:55.357Z,12.41
2023-04-15T22:48:22.615Z,12.42
2023-04-15T22:50:49.782Z,12.41
2023-04-15T22:53:17.834Z,12.37
2023-04-15T22:55:45.769Z,12.34
2023-04-15T22:58:12.618Z,12.34
2023-04-15T23:00:39.571Z,12.34
2023-04-15T23:03:06.840Z,12.34
2023-04-15T23:05:34.347Z,12.34
2023-04-15T23:08:01.324Z,12.33
2023-04-15T23:10:28.331Z,12.30
2023-04-15T23:12:55.087Z,12.29
2023-04-15T23:15:21.904Z,12.26
2023-04-15T23:17:48.758Z,12.24
2023-04-15T23:20:16.646Z,12.25
2023-04-15T23:22:43.654Z,12.25
2023-04-15T23:25:10.437Z,12.25
2023-04-15T23:27:37.301Z,12.24
2023-04-15T23:30:04.557Z,12.22
2023-04-15T23:32:31.387Z,12.21
2023-04-15T23:34:58.289Z,12.19
2023-04-15T23:37:25.041Z,12.19
2023-04-15T23:39:51.895Z,12.18
2023-04-15T23:42:18.795Z,12.18
2023-04-15T23:44:45.692Z,12.15
2023-04-15T23:47:12.635Z,12.14
2023-04-15T23:49:41.163Z,12.14
2023-04-15T23:52:08.111Z,12.12
2023-04-15T23:54:34.976Z,12.12
2023-04-15T23:57:01.975Z,12.15
2023-04-15T23:59:28.767Z,12.16
